sensor_id;sensor_type;location;lat;lon;timestamp;P1;durP1;ratioP1;P2;durP2;ratioP2
29280;SDS011;25048;49.590;11.026;2023-07-29T00:00:51;1.95;;;1.80;;
29280;SDS011;25048;49.590;11.026;2023-07-29T00:03:20;4.22;;;1.95;;
29280;SDS011;25048;49.590;11.026;2023-07-29T00:05:48;1.90;;;1.75;;
29280;SDS011;25048;49.590;11.026;2023-07-29T00:08:15;5.45;;;2.00;;
29280;SDS011;25048;49.590;11.026;2023-07-29T00:10:43;2.55;;;1.85;;
29280;SDS011;25048;49.590;11.026;2023-07-29T00:13:10;2.30;;;2.08;;
29280;SDS011;25048;49.590;11.026;2023-07-29T00:15:38;2.25;;;1.98;;
29280;SDS011;25048;49.590;11.026;2023-07-29T00:18:05;3.12;;;2.08;;
29280;SDS011;25048;49.590;11.026;2023-07-29T00:20:33;2.87;;;1.80;;
29280;SDS011;25048;49.590;11.026;2023-07-29T00:23:01;4.08;;;2.17;;
29280;SDS011;25048;49.590;11.026;2023-07-29T00:25:28;4.17;;;2.17;;
29280;SDS011;25048;49.590;11.026;2023-07-29T00:27:56;2.17;;;1.98;;
29280;SDS011;25048;49.590;11.026;2023-07-29T00:30:23;2.80;;;2.02;;
29280;SDS011;25048;49.590;11.026;2023-07-29T00:32:51;2.35;;;1.80;;
29280;SDS011;25048;49.590;11.026;2023-07-29T00:35:18;1.77;;;1.67;;
29280;SDS011;25048;49.590;11.026;2023-07-29T00:37:46;2.40;;;1.70;;
29280;SDS011;25048;49.590;11.026;2023-07-29T00:40:20;4.85;;;1.95;;
29280;SDS011;25048;49.590;11.026;2023-07-29T00:42:49;2.05;;;1.85;;
29280;SDS011;25048;49.590;11.026;2023-07-29T00:45:16;4.30;;;2.20;;
29280;SDS011;25048;49.590;11.026;2023-07-29T00:47:45;2.42;;;1.72;;
29280;SDS011;25048;49.590;11.026;2023-07-29T00:50:14;1.87;;;1.70;;
29280;SDS011;25048;49.590;11.026;2023-07-29T00:52:42;2.67;;;1.95;;
29280;SDS011;25048;49.590;11.026;2023-07-29T00:55:10;2.65;;;2.27;;
29280;SDS011;25048;49.590;11.026;2023-07-29T00:57:37;5.00;;;2.20;;
29280;SDS011;25048;49.590;11.026;2023-07-29T01:00:06;2.95;;;2.00;;
29280;SDS011;25048;49.590;11.026;2023-07-29T01:02:34;7.12;;;2.67;;
29280;SDS011;25048;49.590;11.026;2023-07-29T01:05:02;2.72;;;2.20;;
29280;SDS011;25048;49.590;11.026;2023-07-29T01:07:36;3.45;;;2.35;;
29280;SDS011;25048;49.590;11.026;2023-07-29T01:13:01;3.87;;;2.30;;
29280;SDS011;25048;49.590;11.026;2023-07-29T01:15:34;2.65;;;2.30;;
29280;SDS011;25048;49.590;11.026;2023-07-29T01:18:08;2.90;;;2.00;;
29280;SDS011;25048;49.590;11.026;2023-07-29T01:20:37;3.47;;;2.00;;
29280;SDS011;25048;49.590;11.026;2023-07-29T01:23:07;4.10;;;2.40;;
29280;SDS011;25048;49.590;11.026;2023-07-29T01:25:34;2.65;;;2.40;;
29280;SDS011;25048;49.590;11.026;2023-07-29T01:28:02;3.15;;;2.47;;
29280;SDS011;25048;49.590;11.026;2023-07-29T01:30:30;3.05;;;2.20;;
29280;SDS011;25048;49.590;11.026;2023-07-29T01:33:03;4.47;;;2.05;;
29280;SDS011;25048;49.590;11.026;2023-07-29T01:35:48;5.25;;;2.62;;
29280;SDS011;25048;49.590;11.026;2023-07-29T01:38:18;3.08;;;2.77;;
29280;SDS011;25048;49.590;11.026;2023-07-29T01:40:48;3.72;;;2.00;;
29280;SDS011;25048;49.590;11.026;2023-07-29T01:43:17;3.02;;;2.08;;
29280;SDS011;25048;49.590;11.026;2023-07-29T01:45:46;5.05;;;2.30;;
29280;SDS011;25048;49.590;11.026;2023-07-29T01:48:14;2.55;;;2.30;;
29280;SDS011;25048;49.590;11.026;2023-07-29T01:50:41;3.67;;;2.30;;
29280;SDS011;25048;49.590;11.026;2023-07-29T01:53:09;5.25;;;2.58;;
29280;SDS011;25048;49.590;11.026;2023-07-29T01:55:37;3.22;;;2.75;;
29280;SDS011;25048;49.590;11.026;2023-07-29T01:58:05;2.30;;;1.95;;
29280;SDS011;25048;49.590;11.026;2023-07-29T02:00:32;3.22;;;2.17;;
29280;SDS011;25048;49.590;11.026;2023-07-29T02:03:00;2.60;;;2.40;;
29280;SDS011;25048;49.590;11.026;2023-07-29T02:05:27;2.52;;;2.10;;
29280;SDS011;25048;49.590;11.026;2023-07-29T02:07:55;2.87;;;2.22;;
29280;SDS011;25048;49.590;11.026;2023-07-29T02:10:22;3.08;;;2.60;;
29280;SDS011;25048;49.590;11.026;2023-07-29T02:12:50;4.35;;;2.42;;
29280;SDS011;25048;49.590;11.026;2023-07-29T02:15:17;5.95;;;2.80;;
29280;SDS011;25048;49.590;11.026;2023-07-29T02:17:45;4.53;;;2.27;;
29280;SDS011;25048;49.590;11.026;2023-07-29T02:20:12;4.50;;;2.12;;
29280;SDS011;25048;49.590;11.026;2023-07-29T02:22:40;4.12;;;2.62;;
29280;SDS011;25048;49.590;11.026;2023-07-29T02:25:08;7.15;;;2.47;;
29280;SDS011;25048;49.590;11.026;2023-07-29T02:27:35;3.22;;;2.42;;
29280;SDS011;25048;49.590;11.026;2023-07-29T02:30:03;3.75;;;2.58;;
29280;SDS011;25048;49.590;11.026;2023-07-29T02:32:31;3.92;;;2.08;;
29280;SDS011;25048;49.590;11.026;2023-07-29T02:34:59;2.92;;;2.60;;
29280;SDS011;25048;49.590;11.026;2023-07-29T02:37:26;5.03;;;2.77;;
29280;SDS011;25048;49.590;11.026;2023-07-29T02:39:54;3.33;;;2.60;;
29280;SDS011;25048;49.590;11.026;2023-07-29T02:42:21;3.27;;;2.72;;
29280;SDS011;25048;49.590;11.026;2023-07-29T02:44:49;6.40;;;2.47;;
29280;SDS011;25048;49.590;11.026;2023-07-29T02:47:16;3.95;;;2.90;;
29280;SDS011;25048;49.590;11.026;2023-07-29T02:49:44;7.30;;;2.95;;
29280;SDS011;25048;49.590;11.026;2023-07-29T02:52:11;4.55;;;2.85;;
29280;SDS011;25048;49.590;11.026;2023-07-29T02:54:39;3.02;;;2.72;;
29280;SDS011;25048;49.590;11.026;2023-07-29T02:57:06;2.60;;;2.40;;
29280;SDS011;25048;49.590;11.026;2023-07-29T02:59:34;6.33;;;3.33;;
29280;SDS011;25048;49.590;11.026;2023-07-29T03:02:01;4.55;;;3.12;;
29280;SDS011;25048;49.590;11.026;2023-07-29T03:04:29;4.37;;;3.10;;
29280;SDS011;25048;49.590;11.026;2023-07-29T03:06:56;4.75;;;2.77;;
29280;SDS011;25048;49.590;11.026;2023-07-29T03:09:25;6.37;;;3.55;;
29280;SDS011;25048;49.590;11.026;2023-07-29T03:11:52;7.37;;;3.17;;
29280;SDS011;25048;49.590;11.026;2023-07-29T03:14:20;3.95;;;3.30;;
29280;SDS011;25048;49.590;11.026;2023-07-29T03:16:48;4.58;;;3.67;;
29280;SDS011;25048;49.590;11.026;2023-07-29T03:19:15;4.53;;;3.02;;
29280;SDS011;25048;49.590;11.026;2023-07-29T03:21:43;5.97;;;3.20;;
29280;SDS011;25048;49.590;11.026;2023-07-29T03:24:11;4.12;;;2.90;;
29280;SDS011;25048;49.590;11.026;2023-07-29T03:26:39;3.27;;;2.60;;
29280;SDS011;25048;49.590;11.026;2023-07-29T03:29:06;4.80;;;2.98;;
29280;SDS011;25048;49.590;11.026;2023-07-29T03:31:34;4.05;;;3.22;;
29280;SDS011;25048;49.590;11.026;2023-07-29T03:34:01;3.92;;;2.77;;
29280;SDS011;25048;49.590;11.026;2023-07-29T03:36:29;4.67;;;2.75;;
29280;SDS011;25048;49.590;11.026;2023-07-29T03:38:56;4.78;;;3.10;;
29280;SDS011;25048;49.590;11.026;2023-07-29T03:41:24;7.05;;;2.70;;
29280;SDS011;25048;49.590;11.026;2023-07-29T03:43:51;2.80;;;2.45;;
29280;SDS011;25048;49.590;11.026;2023-07-29T03:46:19;3.42;;;2.90;;
29280;SDS011;25048;49.590;11.026;2023-07-29T03:48:47;3.22;;;2.62;;
29280;SDS011;25048;49.590;11.026;2023-07-29T03:51:15;4.40;;;2.50;;
29280;SDS011;25048;49.590;11.026;2023-07-29T03:53:42;5.22;;;2.72;;
29280;SDS011;25048;49.590;11.026;2023-07-29T03:56:10;3.85;;;2.95;;
29280;SDS011;25048;49.590;11.026;2023-07-29T03:58:37;4.90;;;3.45;;
29280;SDS011;25048;49.590;11.026;2023-07-29T04:01:05;3.87;;;3.37;;
29280;SDS011;25048;49.590;11.026;2023-07-29T04:03:33;4.30;;;3.58;;
29280;SDS011;25048;49.590;11.026;2023-07-29T04:06:01;5.75;;;3.62;;
29280;SDS011;25048;49.590;11.026;2023-07-29T04:08:28;5.65;;;3.67;;
29280;SDS011;25048;49.590;11.026;2023-07-29T04:10:56;6.12;;;3.05;;
29280;SDS011;25048;49.590;11.026;2023-07-29T04:13:24;8.35;;;4.40;;
29280;SDS011;25048;49.590;11.026;2023-07-29T04:15:51;7.90;;;4.10;;
29280;SDS011;25048;49.590;11.026;2023-07-29T04:18:19;4.28;;;3.60;;
29280;SDS011;25048;49.590;11.026;2023-07-29T04:20:46;6.65;;;3.92;;
29280;SDS011;25048;49.590;11.026;2023-07-29T04:23:14;5.92;;;4.05;;
29280;SDS011;25048;49.590;11.026;2023-07-29T04:25:41;5.62;;;4.03;;
29280;SDS011;25048;49.590;11.026;2023-07-29T04:28:08;5.30;;;3.72;;
29280;SDS011;25048;49.590;11.026;2023-07-29T04:30:36;5.72;;;4.17;;
29280;SDS011;25048;49.590;11.026;2023-07-29T04:33:03;5.28;;;3.60;;
29280;SDS011;25048;49.590;11.026;2023-07-29T04:35:31;5.35;;;3.90;;
29280;SDS011;25048;49.590;11.026;2023-07-29T04:37:59;5.47;;;4.30;;
29280;SDS011;25048;49.590;11.026;2023-07-29T04:40:26;9.20;;;4.40;;
29280;SDS011;25048;49.590;11.026;2023-07-29T04:42:54;5.80;;;4.62;;
29280;SDS011;25048;49.590;11.026;2023-07-29T04:45:21;6.35;;;4.72;;
29280;SDS011;25048;49.590;11.026;2023-07-29T04:47:50;5.72;;;3.95;;
29280;SDS011;25048;49.590;11.026;2023-07-29T04:50:17;7.03;;;4.58;;
29280;SDS011;25048;49.590;11.026;2023-07-29T04:52:45;5.45;;;3.62;;
29280;SDS011;25048;49.590;11.026;2023-07-29T04:55:13;5.90;;;4.42;;
29280;SDS011;25048;49.590;11.026;2023-07-29T04:57:40;12.40;;;4.65;;
29280;SDS011;25048;49.590;11.026;2023-07-29T05:00:08;9.70;;;4.87;;
29280;SDS011;25048;49.590;11.026;2023-07-29T05:02:37;4.50;;;3.67;;
29280;SDS011;25048;49.590;11.026;2023-07-29T05:05:05;7.47;;;4.47;;
29280;SDS011;25048;49.590;11.026;2023-07-29T05:07:33;4.97;;;3.92;;
29280;SDS011;25048;49.590;11.026;2023-07-29T05:10:01;5.65;;;3.65;;
29280;SDS011;25048;49.590;11.026;2023-07-29T05:12:28;4.95;;;3.92;;
29280;SDS011;25048;49.590;11.026;2023-07-29T05:14:58;5.62;;;3.42;;
29280;SDS011;25048;49.590;11.026;2023-07-29T05:17:25;4.60;;;3.62;;
29280;SDS011;25048;49.590;11.026;2023-07-29T05:19:53;7.15;;;3.40;;
29280;SDS011;25048;49.590;11.026;2023-07-29T05:22:20;4.75;;;3.42;;
29280;SDS011;25048;49.590;11.026;2023-07-29T05:24:48;4.45;;;3.58;;
29280;SDS011;25048;49.590;11.026;2023-07-29T05:27:15;4.65;;;3.15;;
29280;SDS011;25048;49.590;11.026;2023-07-29T05:29:43;5.05;;;3.80;;
29280;SDS011;25048;49.590;11.026;2023-07-29T05:32:10;5.75;;;3.50;;
29280;SDS011;25048;49.590;11.026;2023-07-29T05:34:38;4.60;;;3.00;;
29280;SDS011;25048;49.590;11.026;2023-07-29T05:37:05;3.55;;;2.77;;
29280;SDS011;25048;49.590;11.026;2023-07-29T05:39:33;5.55;;;2.98;;
29280;SDS011;25048;49.590;11.026;2023-07-29T05:42:00;4.42;;;2.90;;
29280;SDS011;25048;49.590;11.026;2023-07-29T05:44:28;4.17;;;3.22;;
29280;SDS011;25048;49.590;11.026;2023-07-29T05:46:58;3.22;;;2.67;;
29280;SDS011;25048;49.590;11.026;2023-07-29T05:49:26;3.58;;;2.80;;
29280;SDS011;25048;49.590;11.026;2023-07-29T05:51:53;5.53;;;2.70;;
29280;SDS011;25048;49.590;11.026;2023-07-29T05:54:21;5.12;;;2.55;;
29280;SDS011;25048;49.590;11.026;2023-07-29T05:56:48;9.03;;;2.72;;
29280;SDS011;25048;49.590;11.026;2023-07-29T05:59:16;7.05;;;2.72;;
29280;SDS011;25048;49.590;11.026;2023-07-29T06:01:43;2.95;;;2.40;;
29280;SDS011;25048;49.590;11.026;2023-07-29T06:04:11;4.87;;;2.08;;
29280;SDS011;25048;49.590;11.026;2023-07-29T06:06:38;2.37;;;1.92;;
29280;SDS011;25048;49.590;11.026;2023-07-29T06:09:06;4.12;;;2.12;;
29280;SDS011;25048;49.590;11.026;2023-07-29T06:11:33;3.42;;;2.30;;
29280;SDS011;25048;49.590;11.026;2023-07-29T06:14:01;7.87;;;2.95;;
29280;SDS011;25048;49.590;11.026;2023-07-29T06:16:29;2.62;;;2.30;;
29280;SDS011;25048;49.590;11.026;2023-07-29T06:18:56;3.80;;;1.95;;
29280;SDS011;25048;49.590;11.026;2023-07-29T06:21:24;3.70;;;2.08;;
29280;SDS011;25048;49.590;11.026;2023-07-29T06:23:52;3.17;;;2.10;;
29280;SDS011;25048;49.590;11.026;2023-07-29T06:26:19;4.33;;;1.70;;
29280;SDS011;25048;49.590;11.026;2023-07-29T06:28:46;3.10;;;1.80;;
29280;SDS011;25048;49.590;11.026;2023-07-29T06:31:14;4.08;;;1.80;;
29280;SDS011;25048;49.590;11.026;2023-07-29T06:33:41;3.05;;;1.92;;
29280;SDS011;25048;49.590;11.026;2023-07-29T06:36:09;2.22;;;1.90;;
29280;SDS011;25048;49.590;11.026;2023-07-29T06:38:36;3.77;;;1.90;;
29280;SDS011;25048;49.590;11.026;2023-07-29T06:41:04;4.25;;;2.05;;
29280;SDS011;25048;49.590;11.026;2023-07-29T06:43:32;2.08;;;1.87;;
29280;SDS011;25048;49.590;11.026;2023-07-29T06:45:59;7.95;;;2.87;;
29280;SDS011;25048;49.590;11.026;2023-07-29T06:48:27;4.30;;;2.40;;
29280;SDS011;25048;49.590;11.026;2023-07-29T06:50:54;8.85;;;2.40;;
29280;SDS011;25048;49.590;11.026;2023-07-29T06:53:23;3.30;;;2.25;;
29280;SDS011;25048;49.590;11.026;2023-07-29T06:55:51;2.98;;;2.50;;
29280;SDS011;25048;49.590;11.026;2023-07-29T06:58:19;5.95;;;2.75;;
29280;SDS011;25048;49.590;11.026;2023-07-29T07:00:47;9.78;;;3.60;;
29280;SDS011;25048;49.590;11.026;2023-07-29T07:03:14;5.83;;;2.98;;
29280;SDS011;25048;49.590;11.026;2023-07-29T07:05:42;7.17;;;2.50;;
29280;SDS011;25048;49.590;11.026;2023-07-29T07:08:09;4.20;;;2.80;;
29280;SDS011;25048;49.590;11.026;2023-07-29T07:10:37;6.25;;;3.20;;
29280;SDS011;25048;49.590;11.026;2023-07-29T07:13:04;6.90;;;3.22;;
29280;SDS011;25048;49.590;11.026;2023-07-29T07:15:32;4.10;;;3.20;;
29280;SDS011;25048;49.590;11.026;2023-07-29T07:17:59;6.60;;;3.58;;
29280;SDS011;25048;49.590;11.026;2023-07-29T07:20:27;7.20;;;3.58;;
29280;SDS011;25048;49.590;11.026;2023-07-29T07:22:55;3.42;;;2.60;;
29280;SDS011;25048;49.590;11.026;2023-07-29T07:25:22;5.65;;;3.12;;
29280;SDS011;25048;49.590;11.026;2023-07-29T07:27:50;13.60;;;4.20;;
29280;SDS011;25048;49.590;11.026;2023-07-29T07:30:17;4.92;;;3.72;;
29280;SDS011;25048;49.590;11.026;2023-07-29T07:32:45;7.45;;;4.37;;
29280;SDS011;25048;49.590;11.026;2023-07-29T07:35:12;5.40;;;3.72;;
29280;SDS011;25048;49.590;11.026;2023-07-29T07:37:40;4.05;;;3.55;;
29280;SDS011;25048;49.590;11.026;2023-07-29T07:40:07;5.45;;;4.00;;
29280;SDS011;25048;49.590;11.026;2023-07-29T07:42:35;5.22;;;3.60;;
29280;SDS011;25048;49.590;11.026;2023-07-29T07:45:03;5.95;;;3.58;;
29280;SDS011;25048;49.590;11.026;2023-07-29T07:47:31;5.53;;;4.12;;
29280;SDS011;25048;49.590;11.026;2023-07-29T07:49:59;5.33;;;3.77;;
29280;SDS011;25048;49.590;11.026;2023-07-29T07:52:27;4.75;;;3.35;;
29280;SDS011;25048;49.590;11.026;2023-07-29T07:54:55;7.40;;;3.55;;
29280;SDS011;25048;49.590;11.026;2023-07-29T07:57:22;5.22;;;2.98;;
29280;SDS011;25048;49.590;11.026;2023-07-29T07:59:50;6.08;;;3.35;;
29280;SDS011;25048;49.590;11.026;2023-07-29T08:02:18;4.22;;;3.52;;
29280;SDS011;25048;49.590;11.026;2023-07-29T08:04:46;7.28;;;3.00;;
29280;SDS011;25048;49.590;11.026;2023-07-29T08:07:13;3.65;;;2.65;;
29280;SDS011;25048;49.590;11.026;2023-07-29T08:09:41;6.05;;;2.60;;
29280;SDS011;25048;49.590;11.026;2023-07-29T08:12:08;7.45;;;3.00;;
29280;SDS011;25048;49.590;11.026;2023-07-29T08:14:36;2.85;;;2.30;;
29280;SDS011;25048;49.590;11.026;2023-07-29T08:17:03;4.83;;;2.58;;
29280;SDS011;25048;49.590;11.026;2023-07-29T08:19:31;7.20;;;2.75;;
29280;SDS011;25048;49.590;11.026;2023-07-29T08:22:02;4.53;;;2.45;;
29280;SDS011;25048;49.590;11.026;2023-07-29T08:24:30;2.87;;;2.20;;
29280;SDS011;25048;49.590;11.026;2023-07-29T08:26:57;4.72;;;2.58;;
29280;SDS011;25048;49.590;11.026;2023-07-29T08:29:25;2.85;;;2.12;;
29280;SDS011;25048;49.590;11.026;2023-07-29T08:31:52;3.65;;;2.12;;
29280;SDS011;25048;49.590;11.026;2023-07-29T08:34:21;5.03;;;2.55;;
29280;SDS011;25048;49.590;11.026;2023-07-29T08:36:48;7.62;;;2.65;;
29280;SDS011;25048;49.590;11.026;2023-07-29T08:39:16;6.00;;;2.27;;
29280;SDS011;25048;49.590;11.026;2023-07-29T08:41:53;4.55;;;3.60;;
29280;SDS011;25048;49.590;11.026;2023-07-29T08:44:38;4.60;;;2.30;;
29280;SDS011;25048;49.590;11.026;2023-07-29T08:47:08;3.05;;;2.42;;
29280;SDS011;25048;49.590;11.026;2023-07-29T08:49:36;4.12;;;2.40;;
29280;SDS011;25048;49.590;11.026;2023-07-29T08:52:05;5.78;;;2.92;;
29280;SDS011;25048;49.590;11.026;2023-07-29T08:54:34;5.10;;;2.17;;
29280;SDS011;25048;49.590;11.026;2023-07-29T08:57:02;4.25;;;2.95;;
29280;SDS011;25048;49.590;11.026;2023-07-29T08:59:30;4.08;;;2.60;;
29280;SDS011;25048;49.590;11.026;2023-07-29T09:01:58;2.98;;;2.25;;
29280;SDS011;25048;49.590;11.026;2023-07-29T09:04:25;2.72;;;2.20;;
29280;SDS011;25048;49.590;11.026;2023-07-29T09:06:54;3.25;;;1.92;;
29280;SDS011;25048;49.590;11.026;2023-07-29T09:09:24;4.45;;;2.25;;
29280;SDS011;25048;49.590;11.026;2023-07-29T09:11:52;3.12;;;2.20;;
29280;SDS011;25048;49.590;11.026;2023-07-29T09:14:20;5.22;;;2.02;;
29280;SDS011;25048;49.590;11.026;2023-07-29T09:16:49;1.95;;;1.70;;
29280;SDS011;25048;49.590;11.026;2023-07-29T09:19:17;3.08;;;2.05;;
29280;SDS011;25048;49.590;11.026;2023-07-29T09:21:46;2.42;;;1.87;;
29280;SDS011;25048;49.590;11.026;2023-07-29T09:24:15;2.85;;;2.00;;
29280;SDS011;25048;49.590;11.026;2023-07-29T09:26:50;6.30;;;2.42;;
29280;SDS011;25048;49.590;11.026;2023-07-29T09:29:23;3.17;;;1.87;;
29280;SDS011;25048;49.590;11.026;2023-07-29T09:31:50;3.67;;;1.77;;
29280;SDS011;25048;49.590;11.026;2023-07-29T09:34:18;1.95;;;1.45;;
29280;SDS011;25048;49.590;11.026;2023-07-29T09:36:45;3.08;;;1.65;;
29280;SDS011;25048;49.590;11.026;2023-07-29T09:39:13;2.40;;;1.42;;
29280;SDS011;25048;49.590;11.026;2023-07-29T09:41:40;6.67;;;1.35;;
29280;SDS011;25048;49.590;11.026;2023-07-29T09:44:10;2.90;;;1.65;;
29280;SDS011;25048;49.590;11.026;2023-07-29T09:46:38;2.72;;;1.67;;
29280;SDS011;25048;49.590;11.026;2023-07-29T09:49:06;2.95;;;1.60;;
29280;SDS011;25048;49.590;11.026;2023-07-29T09:51:40;5.00;;;1.50;;
29280;SDS011;25048;49.590;11.026;2023-07-29T09:54:08;5.87;;;1.90;;
29280;SDS011;25048;49.590;11.026;2023-07-29T09:56:39;2.47;;;1.82;;
29280;SDS011;25048;49.590;11.026;2023-07-29T09:59:10;2.72;;;1.87;;
29280;SDS011;25048;49.590;11.026;2023-07-29T10:01:41;4.80;;;2.30;;
29280;SDS011;25048;49.590;11.026;2023-07-29T10:04:09;3.85;;;2.17;;
29280;SDS011;25048;49.590;11.026;2023-07-29T10:06:41;3.67;;;2.35;;
29280;SDS011;25048;49.590;11.026;2023-07-29T10:09:10;2.87;;;1.82;;
29280;SDS011;25048;49.590;11.026;2023-07-29T10:11:38;2.45;;;1.70;;
29280;SDS011;25048;49.590;11.026;2023-07-29T10:14:08;3.05;;;1.90;;
29280;SDS011;25048;49.590;11.026;2023-07-29T10:16:39;3.00;;;2.00;;
29280;SDS011;25048;49.590;11.026;2023-07-29T10:19:07;4.95;;;1.80;;
29280;SDS011;25048;49.590;11.026;2023-07-29T10:21:41;2.62;;;1.50;;
29280;SDS011;25048;49.590;11.026;2023-07-29T10:24:07;2.30;;;1.47;;
29280;SDS011;25048;49.590;11.026;2023-07-29T10:26:37;2.55;;;1.50;;
29280;SDS011;25048;49.590;11.026;2023-07-29T10:29:06;2.55;;;1.60;;
29280;SDS011;25048;49.590;11.026;2023-07-29T10:31:35;2.08;;;1.60;;
29280;SDS011;25048;49.590;11.026;2023-07-29T10:34:05;2.20;;;1.57;;
29280;SDS011;25048;49.590;11.026;2023-07-29T10:36:35;3.80;;;1.55;;
29280;SDS011;25048;49.590;11.026;2023-07-29T10:39:03;1.90;;;1.45;;
29280;SDS011;25048;49.590;11.026;2023-07-29T10:47:24;2.33;;;1.50;;
29280;SDS011;25048;49.590;11.026;2023-07-29T10:49:54;4.78;;;2.45;;
29280;SDS011;25048;49.590;11.026;2023-07-29T10:55:23;6.28;;;2.08;;
29280;SDS011;25048;49.590;11.026;2023-07-29T10:58:06;2.05;;;1.67;;
29280;SDS011;25048;49.590;11.026;2023-07-29T11:00:36;1.90;;;1.52;;
29280;SDS011;25048;49.590;11.026;2023-07-29T11:03:05;4.40;;;2.30;;
29280;SDS011;25048;49.590;11.026;2023-07-29T11:08:23;3.02;;;1.60;;
29280;SDS011;25048;49.590;11.026;2023-07-29T11:10:58;1.75;;;1.40;;
29280;SDS011;25048;49.590;11.026;2023-07-29T11:13:28;1.50;;;1.40;;
29280;SDS011;25048;49.590;11.026;2023-07-29T11:15:56;1.65;;;1.52;;
29280;SDS011;25048;49.590;11.026;2023-07-29T11:18:31;2.60;;;1.45;;
29280;SDS011;25048;49.590;11.026;2023-07-29T11:20:55;4.17;;;2.22;;
29280;SDS011;25048;49.590;11.026;2023-07-29T11:23:27;7.20;;;2.72;;
29280;SDS011;25048;49.590;11.026;2023-07-29T11:25:56;1.60;;;1.50;;
29280;SDS011;25048;49.590;11.026;2023-07-29T11:28:24;2.47;;;1.67;;
29280;SDS011;25048;49.590;11.026;2023-07-29T11:30:58;2.00;;;1.40;;
29280;SDS011;25048;49.590;11.026;2023-07-29T11:33:27;3.27;;;1.80;;
29280;SDS011;25048;49.590;11.026;2023-07-29T11:35:54;2.05;;;1.40;;
29280;SDS011;25048;49.590;11.026;2023-07-29T11:38:22;3.37;;;1.57;;
29280;SDS011;25048;49.590;11.026;2023-07-29T11:40:56;4.83;;;1.30;;
29280;SDS011;25048;49.590;11.026;2023-07-29T11:43:29;2.83;;;1.55;;
29280;SDS011;25048;49.590;11.026;2023-07-29T11:45:56;2.35;;;1.55;;
29280;SDS011;25048;49.590;11.026;2023-07-29T11:48:32;1.65;;;1.55;;
29280;SDS011;25048;49.590;11.026;2023-07-29T11:50:57;2.00;;;1.52;;
29280;SDS011;25048;49.590;11.026;2023-07-29T11:53:26;2.08;;;1.55;;
29280;SDS011;25048;49.590;11.026;2023-07-29T11:55:56;1.92;;;1.47;;
29280;SDS011;25048;49.590;11.026;2023-07-29T11:58:25;2.00;;;1.60;;
29280;SDS011;25048;49.590;11.026;2023-07-29T12:00:53;3.75;;;1.57;;
29280;SDS011;25048;49.590;11.026;2023-07-29T12:03:20;2.90;;;1.50;;
29280;SDS011;25048;49.590;11.026;2023-07-29T12:05:48;3.08;;;1.17;;
29280;SDS011;25048;49.590;11.026;2023-07-29T12:08:16;1.25;;;1.10;;
29280;SDS011;25048;49.590;11.026;2023-07-29T12:10:44;1.75;;;1.25;;
29280;SDS011;25048;49.590;11.026;2023-07-29T12:13:12;1.17;;;1.07;;
29280;SDS011;25048;49.590;11.026;2023-07-29T12:15:39;1.75;;;1.22;;
29280;SDS011;25048;49.590;11.026;2023-07-29T12:18:07;1.70;;;1.40;;
29280;SDS011;25048;49.590;11.026;2023-07-29T12:20:34;3.65;;;1.22;;
29280;SDS011;25048;49.590;11.026;2023-07-29T12:23:03;2.33;;;1.20;;
29280;SDS011;25048;49.590;11.026;2023-07-29T12:25:32;4.67;;;1.25;;
29280;SDS011;25048;49.590;11.026;2023-07-29T12:28:03;1.35;;;1.20;;
29280;SDS011;25048;49.590;11.026;2023-07-29T12:30:32;1.30;;;1.20;;
29280;SDS011;25048;49.590;11.026;2023-07-29T12:33:00;1.67;;;1.20;;
29280;SDS011;25048;49.590;11.026;2023-07-29T12:35:34;2.27;;;1.05;;
29280;SDS011;25048;49.590;11.026;2023-07-29T12:38:03;1.22;;;1.12;;
29280;SDS011;25048;49.590;11.026;2023-07-29T12:40:32;2.40;;;0.95;;
29280;SDS011;25048;49.590;11.026;2023-07-29T12:43:01;1.50;;;1.25;;
29280;SDS011;25048;49.590;11.026;2023-07-29T12:45:35;4.58;;;1.40;;
29280;SDS011;25048;49.590;11.026;2023-07-29T12:47:59;1.87;;;1.17;;
29280;SDS011;25048;49.590;11.026;2023-07-29T12:50:26;2.00;;;1.80;;
29280;SDS011;25048;49.590;11.026;2023-07-29T12:52:55;1.62;;;1.20;;
29280;SDS011;25048;49.590;11.026;2023-07-29T12:55:22;1.47;;;1.37;;
29280;SDS011;25048;49.590;11.026;2023-07-29T12:57:50;2.08;;;1.30;;
29280;SDS011;25048;49.590;11.026;2023-07-29T13:00:18;2.72;;;1.10;;
29280;SDS011;25048;49.590;11.026;2023-07-29T13:02:45;1.05;;;0.95;;
29280;SDS011;25048;49.590;11.026;2023-07-29T13:05:13;1.70;;;1.20;;
29280;SDS011;25048;49.590;11.026;2023-07-29T13:07:40;0.95;;;0.95;;
29280;SDS011;25048;49.590;11.026;2023-07-29T13:10:14;3.25;;;1.22;;
29280;SDS011;25048;49.590;11.026;2023-07-29T13:12:38;4.22;;;1.17;;
29280;SDS011;25048;49.590;11.026;2023-07-29T13:15:06;1.10;;;1.00;;
29280;SDS011;25048;49.590;11.026;2023-07-29T13:17:34;1.65;;;1.40;;
29280;SDS011;25048;49.590;11.026;2023-07-29T13:20:03;6.83;;;2.02;;
29280;SDS011;25048;49.590;11.026;2023-07-29T13:22:31;2.08;;;1.77;;
29280;SDS011;25048;49.590;11.026;2023-07-29T13:24:59;2.55;;;1.10;;
29280;SDS011;25048;49.590;11.026;2023-07-29T13:27:26;2.10;;;1.32;;
29280;SDS011;25048;49.590;11.026;2023-07-29T13:29:54;2.60;;;1.20;;
29280;SDS011;25048;49.590;11.026;2023-07-29T13:32:22;2.62;;;1.07;;
29280;SDS011;25048;49.590;11.026;2023-07-29T13:34:49;1.32;;;1.17;;
29280;SDS011;25048;49.590;11.026;2023-07-29T13:37:17;1.75;;;1.25;;
29280;SDS011;25048;49.590;11.026;2023-07-29T13:39:44;1.45;;;1.35;;
29280;SDS011;25048;49.590;11.026;2023-07-29T13:42:12;3.47;;;1.37;;
29280;SDS011;25048;49.590;11.026;2023-07-29T13:44:39;2.00;;;1.30;;
29280;SDS011;25048;49.590;11.026;2023-07-29T13:47:07;1.90;;;1.42;;
29280;SDS011;25048;49.590;11.026;2023-07-29T13:49:34;2.02;;;1.30;;
29280;SDS011;25048;49.590;11.026;2023-07-29T13:52:02;1.30;;;0.82;;
29280;SDS011;25048;49.590;11.026;2023-07-29T13:54:30;1.00;;;0.90;;
29280;SDS011;25048;49.590;11.026;2023-07-29T13:56:58;2.65;;;0.95;;
29280;SDS011;25048;49.590;11.026;2023-07-29T13:59:25;1.20;;;0.98;;
29280;SDS011;25048;49.590;11.026;2023-07-29T14:01:53;1.10;;;0.95;;
29280;SDS011;25048;49.590;11.026;2023-07-29T14:04:20;1.12;;;1.02;;
29280;SDS011;25048;49.590;11.026;2023-07-29T14:06:48;1.15;;;0.90;;
29280;SDS011;25048;49.590;11.026;2023-07-29T14:09:15;0.82;;;0.70;;
29280;SDS011;25048;49.590;11.026;2023-07-29T14:11:43;1.27;;;1.00;;
29280;SDS011;25048;49.590;11.026;2023-07-29T14:14:10;1.42;;;1.32;;
29280;SDS011;25048;49.590;11.026;2023-07-29T14:16:38;1.00;;;0.90;;
29280;SDS011;25048;49.590;11.026;2023-07-29T14:19:05;3.05;;;1.07;;
29280;SDS011;25048;49.590;11.026;2023-07-29T14:21:33;1.30;;;1.20;;
29280;SDS011;25048;49.590;11.026;2023-07-29T14:24:01;1.00;;;0.90;;
29280;SDS011;25048;49.590;11.026;2023-07-29T14:26:28;0.82;;;0.82;;
29280;SDS011;25048;49.590;11.026;2023-07-29T14:28:56;0.90;;;0.90;;
29280;SDS011;25048;49.590;11.026;2023-07-29T14:31:23;4.67;;;1.05;;
29280;SDS011;25048;49.590;11.026;2023-07-29T14:33:51;1.47;;;1.20;;
29280;SDS011;25048;49.590;11.026;2023-07-29T14:36:19;1.20;;;1.10;;
29280;SDS011;25048;49.590;11.026;2023-07-29T14:38:46;1.15;;;0.93;;
29280;SDS011;25048;49.590;11.026;2023-07-29T14:41:13;1.07;;;0.88;;
29280;SDS011;25048;49.590;11.026;2023-07-29T14:43:41;1.30;;;0.78;;
29280;SDS011;25048;49.590;11.026;2023-07-29T14:46:09;1.00;;;0.90;;
29280;SDS011;25048;49.590;11.026;2023-07-29T14:48:36;1.37;;;1.15;;
29280;SDS011;25048;49.590;11.026;2023-07-29T14:51:04;3.33;;;0.90;;
29280;SDS011;25048;49.590;11.026;2023-07-29T14:53:31;1.17;;;1.00;;